sensor_id;sensor_type;location;lat;lon;timestamp;pressure;altitude;pressure_sealevel;temperature;humidity
15267;BME280;7735;49.144;8.668;2023-04-15T00:00:35;99247.44;;;10.10;50.14
15267;BME280;7735;49.144;8.668;2023-04-15T00:03:02;99247.47;;;10.07;50.50
15267;BME280;7735;49.144;8.668;2023-04-15T00:05:29;99244.84;;;10.10;50.13
15267;BME280;7735;49.144;8.668;2023-04-15T00:07:56;99237.97;;;10.07;50.19
15267;BME280;7735;49.144;8.668;2023-04-15T00:10:25;99239.00;;;9.99;50.48
15267;BME280;7735;49.144;8.668;2023-04-15T00:12:52;99238.28;;;9.92;50.51
15267;BME280;7735;49.144;8.668;2023-04-15T00:15:19;99241.75;;;9.91;50.56
15267;BME280;7735;49.144;8.668;2023-04-15T00:17:49;99230.50;;;9.89;50.50
15267;BME280;7735;49.144;8.668;2023-04-15T00:20:16;99227.06;;;9.90;50.57
15267;BME280;7735;49.144;8.668;2023-04-15T00:22:42;99234.84;;;9.88;51.00
15267;BME280;7735;49.144;8.668;2023-04-15T00:25:09;99234.03;;;9.86;50.87
15267;BME280;7735;49.144;8.668;2023-04-15T00:27:37;99230.69;;;9.81;51.06
15267;BME280;7735;49.144;8.668;2023-04-15T00:30:05;99227.25;;;9.79;51.03
15267;BME280;7735;49.144;8.668;2023-04-15T00:32:32;99235.88;;;9.81;51.26
15267;BME280;7735;49.144;8.668;2023-04-15T00:34:59;99230.69;;;9.81;50.85
15267;BME280;7735;49.144;8.668;2023-04-15T00:37:26;99223.75;;;9.80;51.04
15267;BME280;7735;49.144;8.668;2023-04-15T00:39:53;99225.56;;;9.77;51.33
15267;BME280;7735;49.144;8.668;2023-04-15T00:42:20;99223.88;;;9.74;51.08
15267;BME280;7735;49.144;8.668;2023-04-15T00:44:48;99222.19;;;9.72;51.05
15267;BME280;7735;49.144;8.668;2023-04-15T00:47:15;99215.31;;;9.69;51.38
15267;BME280;7735;49.144;8.668;2023-04-15T00:49:43;99220.59;;;9.66;51.20
15267;BME280;7735;49.144;8.668;2023-04-15T00:52:09;99225.78;;;9.66;51.31
15267;BME280;7735;49.144;8.668;2023-04-15T00:54:36;99223.25;;;9.61;51.08
15267;BME280;7735;49.144;8.668;2023-04-15T00:57:04;99215.56;;;9.57;51.43
15267;BME280;7735;49.144;8.668;2023-04-15T00:59:32;99222.47;;;9.58;51.25
15267;BME280;7735;49.144;8.668;2023-04-15T01:02:00;99231.97;;;9.59;51.40
15267;BME280;7735;49.144;8.668;2023-04-15T01:04:35;99225.84;;;9.61;51.48
15267;BME280;7735;49.144;8.668;2023-04-15T01:07:01;99224.09;;;9.62;51.20
15267;BME280;7735;49.144;8.668;2023-04-15T01:09:31;99221.50;;;9.63;51.21
15267;BME280;7735;49.144;8.668;2023-04-15T01:11:58;99225.78;;;9.66;51.07
15267;BME280;7735;49.144;8.668;2023-04-15T01:14:25;99229.19;;;9.68;51.37
15267;BME280;7735;49.144;8.668;2023-04-15T01:16:52;99229.22;;;9.67;51.35
15267;BME280;7735;49.144;8.668;2023-04-15T01:19:20;99218.88;;;9.65;51.37
15267;BME280;7735;49.144;8.668;2023-04-15T01:21:46;99218.06;;;9.63;51.29
15267;BME280;7735;49.144;8.668;2023-04-15T01:24:14;99225.88;;;9.60;51.37
15267;BME280;7735;49.144;8.668;2023-04-15T01:26:44;99227.72;;;9.55;51.34
15267;BME280;7735;49.144;8.668;2023-04-15T01:29:13;99220.00;;;9.50;51.51
15267;BME280;7735;49.144;8.668;2023-04-15T01:31:39;99219.22;;;9.47;51.50
15267;BME280;7735;49.144;8.668;2023-04-15T01:34:06;99221.81;;;9.45;51.82
15267;BME280;7735;49.144;8.668;2023-04-15T01:36:33;99218.41;;;9.43;51.78
15267;BME280;7735;49.144;8.668;2023-04-15T01:38:59;99219.38;;;9.38;51.35
15267;BME280;7735;49.144;8.668;2023-04-15T01:41:27;99219.47;;;9.31;51.98
15267;BME280;7735;49.144;8.668;2023-04-15T01:43:55;99219.59;;;9.25;51.69
15267;BME280;7735;49.144;8.668;2023-04-15T01:46:21;99218.81;;;9.19;51.76
15267;BME280;7735;49.144;8.668;2023-04-15T01:48:48;99217.25;;;9.12;52.19
15267;BME280;7735;49.144;8.668;2023-04-15T01:51:15;99222.53;;;9.05;52.19
15267;BME280;7735;49.144;8.668;2023-04-15T01:53:41;99225.16;;;9.04;52.26
15267;BME280;7735;49.144;8.668;2023-04-15T01:56:08;99219.09;;;9.03;52.41
15267;BME280;7735;49.144;8.668;2023-04-15T01:58:35;99213.06;;;9.03;52.20
15267;BME280;7735;49.144;8.668;2023-04-15T02:01:03;99216.53;;;9.02;52.04
15267;BME280;7735;49.144;8.668;2023-04-15T02:03:29;99211.44;;;8.96;52.05
15267;BME280;7735;49.144;8.668;2023-04-15T02:05:56;99208.91;;;8.91;52.42
15267;BME280;7735;49.144;8.668;2023-04-15T02:08:23;99202.13;;;8.84;52.94
15267;BME280;7735;49.144;8.668;2023-04-15T02:10:49;99210.78;;;8.83;52.96
15267;BME280;7735;49.144;8.668;2023-04-15T02:13:17;99209.06;;;8.82;52.93
15267;BME280;7735;49.144;8.668;2023-04-15T02:15:46;99209.91;;;8.83;52.64
15267;BME280;7735;49.144;8.668;2023-04-15T02:18:14;99207.31;;;8.83;52.90
15267;BME280;7735;49.144;8.668;2023-04-15T02:20:41;99210.78;;;8.83;53.15
15267;BME280;7735;49.144;8.668;2023-04-15T02:23:08;99213.38;;;8.83;53.08
15267;BME280;7735;49.144;8.668;2023-04-15T02:25:36;99221.16;;;8.85;52.55
15267;BME280;7735;49.144;8.668;2023-04-15T02:28:03;99215.09;;;8.83;52.67
15267;BME280;7735;49.144;8.668;2023-04-15T02:30:30;99218.66;;;8.78;52.93
15267;BME280;7735;49.144;8.668;2023-04-15T02:32:57;99217.84;;;8.73;53.11
15267;BME280;7735;49.144;8.668;2023-04-15T02:35:25;99212.75;;;8.69;53.45
15267;BME280;7735;49.144;8.668;2023-04-15T02:37:52;99209.28;;;8.68;53.10
15267;BME280;7735;49.144;8.668;2023-04-15T02:40:18;99210.06;;;8.75;53.63
15267;BME280;7735;49.144;8.668;2023-04-15T02:42:45;99216.88;;;8.80;53.38
15267;BME280;7735;49.144;8.668;2023-04-15T02:45:12;99211.53;;;8.90;52.78
15267;BME280;7735;49.144;8.668;2023-04-15T02:47:39;99213.22;;;8.94;53.06
15267;BME280;7735;49.144;8.668;2023-04-15T02:50:08;99209.75;;;8.92;52.61
15267;BME280;7735;49.144;8.668;2023-04-15T02:52:38;99215.06;;;8.86;52.83
15267;BME280;7735;49.144;8.668;2023-04-15T02:55:06;99203.91;;;8.80;53.09
15267;BME280;7735;49.144;8.668;2023-04-15T02:57:32;99201.38;;;8.77;52.98
15267;BME280;7735;49.144;8.668;2023-04-15T03:00:01;99202.25;;;8.76;53.03
15267;BME280;7735;49.144;8.668;2023-04-15T03:02:32;99197.97;;;8.72;53.11
15267;BME280;7735;49.144;8.668;2023-04-15T03:04:59;99200.59;;;8.71;53.36
15267;BME280;7735;49.144;8.668;2023-04-15T03:07:26;99201.50;;;8.68;52.90
15267;BME280;7735;49.144;8.668;2023-04-15T03:09:54;99213.66;;;8.66;52.86
15267;BME280;7735;49.144;8.668;2023-04-15T03:12:20;99218.00;;;8.63;53.58
15267;BME280;7735;49.144;8.668;2023-04-15T03:14:47;99214.59;;;8.61;53.48
15267;BME280;7735;49.144;8.668;2023-04-15T03:17:14;99224.13;;;8.60;53.36
15267;BME280;7735;49.144;8.668;2023-04-15T03:19:40;99226.72;;;8.60;53.16
15267;BME280;7735;49.144;8.668;2023-04-15T03:22:07;99224.06;;;8.63;53.60
15267;BME280;7735;49.144;8.668;2023-04-15T03:24:33;99228.34;;;8.67;52.95
15267;BME280;7735;49.144;8.668;2023-04-15T03:27:01;99219.78;;;8.61;52.48
15267;BME280;7735;49.144;8.668;2023-04-15T03:29:30;99227.72;;;8.50;52.98
15267;BME280;7735;49.144;8.668;2023-04-15T03:32:00;99226.06;;;8.44;53.40
15267;BME280;7735;49.144;8.668;2023-04-15T03:34:26;99233.03;;;8.41;53.34
15267;BME280;7735;49.144;8.668;2023-04-15T03:36:53;99229.66;;;8.33;53.65
15267;BME280;7735;49.144;8.668;2023-04-15T03:39:19;99235.81;;;8.24;54.28
15267;BME280;7735;49.144;8.668;2023-04-15T03:41:46;99226.34;;;8.21;53.94
15267;BME280;7735;49.144;8.668;2023-04-15T03:44:14;99225.50;;;8.19;54.32
15267;BME280;7735;49.144;8.668;2023-04-15T03:46:41;99231.56;;;8.18;53.53
15267;BME280;7735;49.144;8.668;2023-04-15T03:49:08;99223.00;;;8.13;53.35
15267;BME280;7735;49.144;8.668;2023-04-15T03:51:34;99228.22;;;8.10;53.64
15267;BME280;7735;49.144;8.668;2023-04-15T03:54:01;99221.31;;;8.09;53.84
15267;BME280;7735;49.144;8.668;2023-04-15T03:56:27;99217.06;;;8.04;53.30
15267;BME280;7735;49.144;8.668;2023-04-15T03:58:54;99229.16;;;8.06;53.69
15267;BME280;7735;49.144;8.668;2023-04-15T04:01:22;99224.69;;;8.17;53.64
15267;BME280;7735;49.144;8.668;2023-04-15T04:03:48;99218.56;;;8.23;53.84
15267;BME280;7735;49.144;8.668;2023-04-15T04:06:15;99222.84;;;8.26;53.82
15267;BME280;7735;49.144;8.668;2023-04-15T04:08:41;99222.78;;;8.29;53.48
15267;BME280;7735;49.144;8.668;2023-04-15T04:11:08;99226.25;;;8.31;53.42
15267;BME280;7735;49.144;8.668;2023-04-15T04:13:35;99228.81;;;8.29;53.08
15267;BME280;7735;49.144;8.668;2023-04-15T04:16:02;99231.50;;;8.24;53.80
15267;BME280;7735;49.144;8.668;2023-04-15T04:18:31;99233.22;;;8.26;53.34
15267;BME280;7735;49.144;8.668;2023-04-15T04:20:57;99236.59;;;8.31;53.44
15267;BME280;7735;49.144;8.668;2023-04-15T04:23:24;99227.94;;;8.32;53.05
15267;BME280;7735;49.144;8.668;2023-04-15T04:25:51;99238.31;;;8.35;53.78
15267;BME280;7735;49.144;8.668;2023-04-15T04:28:17;99234.81;;;8.36;53.33
15267;BME280;7735;49.144;8.668;2023-04-15T04:30:44;99238.31;;;8.30;53.00
15267;BME280;7735;49.144;8.668;2023-04-15T04:33:11;99238.44;;;8.22;53.33
15267;BME280;7735;49.144;8.668;2023-04-15T04:35:39;99241.06;;;8.18;53.80
15267;BME280;7735;49.144;8.668;2023-04-15T04:38:05;99240.28;;;8.14;53.28
15267;BME280;7735;49.144;8.668;2023-04-15T04:40:32;99241.97;;;8.15;53.36
15267;BME280;7735;49.144;8.668;2023-04-15T04:42:59;99246.25;;;8.19;53.25
15267;BME280;7735;49.144;8.668;2023-04-15T04:45:25;99245.34;;;8.23;53.87
15267;BME280;7735;49.144;8.668;2023-04-15T04:47:52;99233.16;;;8.29;53.77
15267;BME280;7735;49.144;8.668;2023-04-15T04:50:19;99245.22;;;8.30;53.68
15267;BME280;7735;49.144;8.668;2023-04-15T04:52:48;99237.47;;;8.30;53.85
15267;BME280;7735;49.144;8.668;2023-04-15T04:55:14;99239.19;;;8.29;53.49
15267;BME280;7735;49.144;8.668;2023-04-15T04:57:41;99252.13;;;8.32;54.12
15267;BME280;7735;49.144;8.668;2023-04-15T05:00:08;99257.34;;;8.31;54.04
15267;BME280;7735;49.144;8.668;2023-04-15T05:02:35;99253.91;;;8.29;54.04
15267;BME280;7735;49.144;8.668;2023-04-15T05:05:02;99260.03;;;8.23;54.13
15267;BME280;7735;49.144;8.668;2023-04-15T05:07:28;99257.41;;;8.24;53.57
15267;BME280;7735;49.144;8.668;2023-04-15T05:09:56;99259.16;;;8.24;53.79
15267;BME280;7735;49.144;8.668;2023-04-15T05:12:23;99260.91;;;8.23;53.50
15267;BME280;7735;49.144;8.668;2023-04-15T05:14:50;99267.03;;;8.16;53.91
15267;BME280;7735;49.144;8.668;2023-04-15T05:17:23;99260.22;;;8.08;53.43
15267;BME280;7735;49.144;8.668;2023-04-15T05:19:50;99258.53;;;8.04;53.90
15267;BME280;7735;49.144;8.668;2023-04-15T05:22:18;99261.13;;;8.02;53.60
15267;BME280;7735;49.144;8.668;2023-04-15T05:24:44;99263.75;;;8.01;54.12
15267;BME280;7735;49.144;8.668;2023-04-15T05:27:12;99267.22;;;8.00;54.25
15267;BME280;7735;49.144;8.668;2023-04-15T05:29:39;99268.13;;;7.97;54.23
15267;BME280;7735;49.144;8.668;2023-04-15T05:32:05;99271.59;;;7.96;53.80
15267;BME280;7735;49.144;8.668;2023-04-15T05:34:32;99268.09;;;8.00;54.05
15267;BME280;7735;49.144;8.668;2023-04-15T05:36:59;99267.13;;;8.07;54.42
15267;BME280;7735;49.144;8.668;2023-04-15T05:39:25;99271.44;;;8.08;54.12
15267;BME280;7735;49.144;8.668;2023-04-15T05:41:52;99268.00;;;8.08;53.74
15267;BME280;7735;49.144;8.668;2023-04-15T05:44:20;99268.00;;;8.08;54.16
15267;BME280;7735;49.144;8.668;2023-04-15T05:46:46;99261.06;;;8.08;54.06
15267;BME280;7735;49.144;8.668;2023-04-15T05:49:13;99261.94;;;8.07;54.06
15267;BME280;7735;49.144;8.668;2023-04-15T05:51:39;99257.66;;;8.06;55.00
15267;BME280;7735;49.144;8.668;2023-04-15T05:54:06;99261.00;;;8.14;54.70
15267;BME280;7735;49.144;8.668;2023-04-15T05:56:33;99262.63;;;8.21;54.59
15267;BME280;7735;49.144;8.668;2023-04-15T05:58:59;99271.22;;;8.27;54.73
15267;BME280;7735;49.144;8.668;2023-04-15T06:01:27;99276.34;;;8.31;54.99
15267;BME280;7735;49.144;8.668;2023-04-15T06:03:55;99273.72;;;8.36;54.57
15267;BME280;7735;49.144;8.668;2023-04-15T06:06:22;99271.97;;;8.36;54.74
15267;BME280;7735;49.144;8.668;2023-04-15T06:08:49;99273.72;;;8.36;54.68
15267;BME280;7735;49.144;8.668;2023-04-15T06:11:16;99273.66;;;8.39;55.26
15267;BME280;7735;49.144;8.668;2023-04-15T06:13:43;99277.91;;;8.46;55.42
15267;BME280;7735;49.144;8.668;2023-04-15T06:16:09;99282.22;;;8.48;55.07
15267;BME280;7735;49.144;8.668;2023-04-15T06:18:37;99290.81;;;8.50;55.09
15267;BME280;7735;49.144;8.668;2023-04-15T06:21:04;99280.44;;;8.50;55.26
15267;BME280;7735;49.144;8.668;2023-04-15T06:23:33;99282.97;;;8.55;55.23
15267;BME280;7735;49.144;8.668;2023-04-15T06:26:00;99286.38;;;8.60;55.91
15267;BME280;7735;49.144;8.668;2023-04-15T06:28:28;99289.75;;;8.64;56.01
15267;BME280;7735;49.144;8.668;2023-04-15T06:30:54;99286.25;;;8.68;56.07
15267;BME280;7735;49.144;8.668;2023-04-15T06:33:21;99293.13;;;8.70;56.04
15267;BME280;7735;49.144;8.668;2023-04-15T06:35:49;99291.28;;;8.78;56.32
15267;BME280;7735;49.144;8.668;2023-04-15T06:38:16;99295.53;;;8.83;56.06
15267;BME280;7735;49.144;8.668;2023-04-15T06:40:42;99292.91;;;8.86;56.47
15267;BME280;7735;49.144;8.668;2023-04-15T06:43:09;99300.59;;;8.92;56.42
15267;BME280;7735;49.144;8.668;2023-04-15T06:49:19;99301.19;;;9.09;56.47
15267;BME280;7735;49.144;8.668;2023-04-15T06:51:50;99304.78;;;9.56;57.13
15267;BME280;7735;49.144;8.668;2023-04-15T06:54:33;99304.50;;;9.70;56.30
15267;BME280;7735;49.144;8.668;2023-04-15T06:57:00;99296.75;;;9.68;56.13
15267;BME280;7735;49.144;8.668;2023-04-15T06:59:34;99296.78;;;9.67;56.07
15267;BME280;7735;49.144;8.668;2023-04-15T07:02:04;99301.13;;;9.66;56.26
15267;BME280;7735;49.144;8.668;2023-04-15T07:04:31;99298.44;;;9.72;56.22
15267;BME280;7735;49.144;8.668;2023-04-15T07:07:05;99295.84;;;9.71;55.98
15267;BME280;7735;49.144;8.668;2023-04-15T07:09:41;99292.34;;;9.72;56.18
15267;BME280;7735;49.144;8.668;2023-04-15T07:12:11;99281.06;;;9.74;56.11
15267;BME280;7735;49.144;8.668;2023-04-15T07:14:37;99293.09;;;9.78;56.48
15267;BME280;7735;49.144;8.668;2023-04-15T07:17:04;99281.75;;;9.84;56.71
15267;BME280;7735;49.144;8.668;2023-04-15T07:19:30;99285.94;;;9.91;56.46
15267;BME280;7735;49.144;8.668;2023-04-15T07:21:57;99282.31;;;9.98;56.59
15267;BME280;7735;49.144;8.668;2023-04-15T07:24:54;99282.16;;;10.06;56.34
15267;BME280;7735;49.144;8.668;2023-04-15T07:27:20;99286.34;;;10.16;56.44
15267;BME280;7735;49.144;8.668;2023-04-15T07:29:55;99284.47;;;10.23;56.18
15267;BME280;7735;49.144;8.668;2023-04-15T07:32:36;99282.53;;;10.32;56.19
15267;BME280;7735;49.144;8.668;2023-04-15T07:35:08;99279.81;;;10.38;56.13
15267;BME280;7735;49.144;8.668;2023-04-15T07:37:41;99283.97;;;10.47;55.71
15267;BME280;7735;49.144;8.668;2023-04-15T07:40:25;99272.50;;;10.56;55.76
15267;BME280;7735;49.144;8.668;2023-04-15T07:42:52;99271.44;;;10.64;55.82
15267;BME280;7735;49.144;8.668;2023-04-15T07:45:19;99272.09;;;10.74;55.85
15267;BME280;7735;49.144;8.668;2023-04-15T07:47:45;99275.38;;;10.82;55.87
15267;BME280;7735;49.144;8.668;2023-04-15T07:50:13;99274.41;;;10.88;55.80
15267;BME280;7735;49.144;8.668;2023-04-15T07:52:41;99272.53;;;10.93;55.67
15267;BME280;7735;49.144;8.668;2023-04-15T07:55:09;99266.25;;;11.01;55.61
15267;BME280;7735;49.144;8.668;2023-04-15T07:57:37;99276.44;;;11.11;55.48
15267;BME280;7735;49.144;8.668;2023-04-15T08:00:04;99276.31;;;11.17;55.60
15267;BME280;7735;49.144;8.668;2023-04-15T08:02:32;99271.84;;;11.20;55.61
15267;BME280;7735;49.144;8.668;2023-04-15T08:04:58;99270.91;;;11.24;55.37
15267;BME280;7735;49.144;8.668;2023-04-15T08:07:32;99265.50;;;11.32;55.46
15267;BME280;7735;49.144;8.668;2023-04-15T08:09:59;99270.59;;;11.37;55.64
15267;BME280;7735;49.144;8.668;2023-04-15T08:12:25;99260.97;;;11.40;55.65
15267;BME280;7735;49.144;8.668;2023-04-15T08:14:53;99270.41;;;11.44;55.86
15267;BME280;7735;49.144;8.668;2023-04-15T08:17:20;99265.09;;;11.49;55.68
15267;BME280;7735;49.144;8.668;2023-04-15T08:19:47;99263.25;;;11.52;55.58
15267;BME280;7735;49.144;8.668;2023-04-15T08:22:14;99270.06;;;11.56;55.57
15267;BME280;7735;49.144;8.668;2023-04-15T08:24:41;99282.97;;;11.62;55.79
15267;BME280;7735;49.144;8.668;2023-04-15T08:27:07;99275.88;;;11.68;55.80
15267;BME280;7735;49.144;8.668;2023-04-15T08:29:34;99283.56;;;11.72;55.88
15267;BME280;7735;49.144;8.668;2023-04-15T08:32:02;99285.22;;;11.75;56.09
15267;BME280;7735;49.144;8.668;2023-04-15T08:34:29;99288.63;;;11.80;56.13
15267;BME280;7735;49.144;8.668;2023-04-15T08:36:56;99278.94;;;11.85;56.16
15267;BME280;7735;49.144;8.668;2023-04-15T08:39:22;99284.84;;;11.90;56.00
15267;BME280;7735;49.144;8.668;2023-04-15T08:41:51;99291.63;;;11.97;55.90
15267;BME280;7735;49.144;8.668;2023-04-15T08:44:22;99289.75;;;12.02;55.07
15267;BME280;7735;49.144;8.668;2023-04-15T08:46:50;99287.84;;;12.07;53.97
15267;BME280;7735;49.144;8.668;2023-04-15T08:49:20;99286.81;;;12.14;53.51
15267;BME280;7735;49.144;8.668;2023-04-15T08:51:48;99283.75;;;12.30;53.12
15267;BME280;7735;49.144;8.668;2023-04-15T08:54:14;99291.31;;;12.39;52.92
15267;BME280;7735;49.144;8.668;2023-04-15T08:56:41;99293.72;;;12.45;52.77
15267;BME280;7735;49.144;8.668;2023-04-15T08:59:08;99289.38;;;12.45;52.66
15267;BME280;7735;49.144;8.668;2023-04-15T09:01:36;99291.06;;;12.48;53.12
15267;BME280;7735;49.144;8.668;2023-04-15T09:04:04;99296.13;;;12.53;53.04
15267;BME280;7735;49.144;8.668;2023-04-15T09:06:33;99284.66;;;12.58;52.82
15267;BME280;7735;49.144;8.668;2023-04-15T09:09:03;99296.69;;;12.62;52.82
15267;BME280;7735;49.144;8.668;2023-04-15T09:11:43;99290.47;;;12.68;52.96
15267;BME280;7735;49.144;8.668;2023-04-15T09:14:10;99299.03;;;12.73;53.52
15267;BME280;7735;49.144;8.668;2023-04-15T09:16:56;99296.25;;;12.77;53.43
15267;BME280;7735;49.144;8.668;2023-04-15T09:19:23;99304.88;;;12.81;53.67
15267;BME280;7735;49.144;8.668;2023-04-15T09:21:52;99302.03;;;12.87;53.12
15267;BME280;7735;49.144;8.668;2023-04-15T09:24:19;99308.84;;;12.93;53.44
15267;BME280;7735;49.144;8.668;2023-04-15T09:26:46;99308.66;;;12.99;53.28
15267;BME280;7735;49.144;8.668;2023-04-15T09:29:12;99307.72;;;13.01;53.25
15267;BME280;7735;49.144;8.668;2023-04-15T09:31:51;99309.41;;;13.02;52.68
15267;BME280;7735;49.144;8.668;2023-04-15T09:34:34;99313.56;;;13.10;52.63
15267;BME280;7735;49.144;8.668;2023-04-15T09:37:02;99314.19;;;13.16;52.60
15267;BME280;7735;49.144;8.668;2023-04-15T09:39:44;99318.41;;;13.22;52.26
15267;BME280;7735;49.144;8.668;2023-04-15T09:42:12;99305.28;;;13.23;52.20
15267;BME280;7735;49.144;8.668;2023-04-15T09:44:39;99315.66;;;13.26;51.89
15267;BME280;7735;49.144;8.668;2023-04-15T09:47:05;99312.94;;;13.29;51.69
15267;BME280;7735;49.144;8.668;2023-04-15T09:49:32;99320.66;;;13.32;51.45
15267;BME280;7735;49.144;8.668;2023-04-15T09:51:59;99321.34;;;13.39;50.57
15267;BME280;7735;49.144;8.668;2023-04-15T09:54:34;99322.84;;;13.46;50.42
15267;BME280;7735;49.144;8.668;2023-04-15T09:57:05;99323.53;;;13.51;50.11
15267;BME280;7735;49.144;8.668;2023-04-15T09:59:32;99320.91;;;13.53;49.90
15267;BME280;7735;49.144;8.668;2023-04-15T10:01:59;99323.50;;;13.53;49.51
15267;BME280;7735;49.144;8.668;2023-04-15T10:04:26;99332.03;;;13.58;49.19
15267;BME280;7735;49.144;8.668;2023-04-15T10:06:54;99325.00;;;13.60;49.07
15267;BME280;7735;49.144;8.668;2023-04-15T10:09:21;99324.91;;;13.63;49.32
15267;BME280;7735;49.144;8.668;2023-04-15T10:11:49;99325.69;;;13.65;49.25
15267;BME280;7735;49.144;8.668;2023-04-15T10:14:17;99336.97;;;13.67;49.10
15267;BME280;7735;49.144;8.668;2023-04-15T10:16:46;99327.22;;;13.72;49.06
15267;BME280;7735;49.144;8.668;2023-04-15T10:19:14;99327.88;;;13.77;48.25
15267;BME280;7735;49.144;8.668;2023-04-15T10:21:50;99343.28;;;13.86;47.82
15267;BME280;7735;49.144;8.668;2023-04-15T10:24:18;99336.25;;;13.88;47.53
15267;BME280;7735;49.144;8.668;2023-04-15T10:26:45;99344.03;;;13.90;47.08
15267;BME280;7735;49.144;8.668;2023-04-15T10:29:13;99351.84;;;13.92;47.11
15267;BME280;7735;49.144;8.668;2023-04-15T10:31:40;99343.00;;;13.94;46.73
15267;BME280;7735;49.144;8.668;2023-04-15T10:34:08;99350.00;;;13.94;46.82
15267;BME280;7735;49.144;8.668;2023-04-15T10:36:35;99350.00;;;13.94;46.58
15267;BME280;7735;49.144;8.668;2023-04-15T10:39:41;99353.53;;;13.93;45.95
15267;BME280;7735;49.144;8.668;2023-04-15T10:42:10;99356.22;;;13.91;45.69
15267;BME280;7735;49.144;8.668;2023-04-15T10:44:39;99366.69;;;13.91;45.73
15267;BME280;7735;49.144;8.668;2023-04-15T10:47:10;99363.88;;;13.96;45.74
15267;BME280;7735;49.144;8.668;2023-04-15T10:49:45;99365.63;;;13.97;45.91
15267;BME280;7735;49.144;8.668;2023-04-15T10:52:14;99369.69;;;14.05;45.68
15267;BME280;7735;49.144;8.668;2023-04-15T10:54:41;99368.03;;;14.53;44.59
15267;BME280;7735;49.144;8.668;2023-04-15T10:57:13;99373.72;;;14.64;44.61
15267;BME280;7735;49.144;8.668;2023-04-15T11:00:09;99377.59;;;14.54;43.92
15267;BME280;7735;49.144;8.668;2023-04-15T11:02:55;99381.53;;;14.40;43.59
15267;BME280;7735;49.144;8.668;2023-04-15T11:05:49;99371.28;;;14.34;43.41
15267;BME280;7735;49.144;8.668;2023-04-15T11:08:16;99372.28;;;14.30;43.40
15267;BME280;7735;49.144;8.668;2023-04-15T11:10:52;99368.78;;;14.31;43.38
15267;BME280;7735;49.144;8.668;2023-04-15T11:13:23;99372.19;;;14.33;43.29
15267;BME280;7735;49.144;8.668;2023-04-15T11:15:56;99365.13;;;14.35;42.94
15267;BME280;7735;49.144;8.668;2023-04-15T11:18:25;99369.50;;;14.35;42.62
15267;BME280;7735;49.144;8.668;2023-04-15T11:20:54;99368.47;;;14.39;42.48
15267;BME280;7735;49.144;8.668;2023-04-15T11:23:27;99370.84;;;14.47;41.84
15267;BME280;7735;49.144;8.668;2023-04-15T11:25:54;99366.31;;;14.52;42.19
15267;BME280;7735;49.144;8.668;2023-04-15T11:28:24;99377.25;;;14.63;42.18
15267;BME280;7735;49.144;8.668;2023-04-15T11:30:51;99376.19;;;14.68;42.14
15267;BME280;7735;49.144;8.668;2023-04-15T11:33:19;99377.75;;;14.72;42.36
15267;BME280;7735;49.144;8.668;2023-04-15T11:35:46;99375.00;;;14.77;42.27
15267;BME280;7735;49.144;8.668;2023-04-15T11:38:14;99374.72;;;14.85;42.72
15267;BME280;7735;49.144;8.668;2023-04-15T11:40:42;99359.41;;;14.96;42.68
15267;BME280;7735;49.144;8.668;2023-04-15T11:43:09;99372.22;;;15.04;43.15
15267;BME280;7735;49.144;8.668;2023-04-15T11:45:37;99370.19;;;15.12;43.24
15267;BME280;7735;49.144;8.668;2023-04-15T11:48:12;99374.31;;;15.17;43.43
15267;BME280;7735;49.144;8.668;2023-04-15T11:50:41;99374.25;;;15.19;43.29
15267;BME280;7735;49.144;8.668;2023-04-15T11:53:10;99377.00;;;15.16;43.02
15267;BME280;7735;49.144;8.668;2023-04-15T11:55:41;99370.28;;;15.09;42.94
15267;BME280;7735;49.144;8.668;2023-04-15T11:58:10;99389.66;;;15.05;42.58
15267;BME280;7735;49.144;8.668;2023-04-15T12:00:38;99393.44;;;14.97;42.93
15267;BME280;7735;49.144;8.668;2023-04-15T12:03:18;99394.50;;;14.92;42.96
15267;BME280;7735;49.144;8.668;2023-04-15T12:06:09;99406.69;;;14.93;43.13
15267;BME280;7735;49.144;8.668;2023-04-15T12:08:56;99408.53;;;14.91;42.19
15267;BME280;7735;49.144;8.668;2023-04-15T12:11:46;99410.19;;;14.93;41.00
15267;BME280;7735;49.144;8.668;2023-04-15T12:14:18;99412.00;;;14.91;40.45
15267;BME280;7735;49.144;8.668;2023-04-15T12:16:46;99413.81;;;14.89;39.83
15267;BME280;7735;49.144;8.668;2023-04-15T12:19:16;99416.56;;;14.86;39.59
15267;BME280;7735;49.144;8.668;2023-04-15T12:21:46;99423.56;;;14.86;39.12
15267;BME280;7735;49.144;8.668;2023-04-15T12:24:13;99429.81;;;14.82;38.50
15267;BME280;7735;49.144;8.668;2023-04-15T12:26:44;99436.03;;;14.79;38.22
15267;BME280;7735;49.144;8.668;2023-04-15T12:29:11;99442.25;;;14.77;38.29
15267;BME280;7735;49.144;8.668;2023-04-15T12:31:46;99446.53;;;14.79;38.17
15267;BME280;7735;49.144;8.668;2023-04-15T12:34:14;99446.41;;;14.82;38.27
15267;BME280;7735;49.144;8.668;2023-04-15T12:36:41;99449.84;;;14.84;38.48
15267;BME280;7735;49.144;8.668;2023-04-15T12:39:09;99455.88;;;14.86;38.45
15267;BME280;7735;49.144;8.668;2023-04-15T12:41:35;99474.28;;;14.85;37.49
15267;BME280;7735;49.144;8.668;2023-04-15T12:44:02;99472.88;;;14.74;36.37
15267;BME280;7735;49.144;8.668;2023-04-15T12:46:29;99479.25;;;14.67;36.09
15267;BME280;7735;49.144;8.668;2023-04-15T12:48:56;99471.69;;;14.60;36.21
15267;BME280;7735;49.144;8.668;2023-04-15T12:51:23;99468.41;;;14.53;36.43
15267;BME280;7735;49.144;8.668;2023-04-15T12:53:51;99468.47;;;14.52;36.42
15267;BME280;7735;49.144;8.668;2023-04-15T12:56:19;99471.13;;;14.50;36.39
15267;BME280;7735;49.144;8.668;2023-04-15T12:58:46;99470.28;;;14.50;37.02
15267;BME280;7735;49.144;8.668;2023-04-15T13:01:13;99473.78;;;14.49;36.91
15267;BME280;7735;49.144;8.668;2023-04-15T13:03:40;99468.75;;;14.42;36.70
15267;BME280;7735;49.144;8.668;2023-04-15T13:06:12;99474.06;;;14.39;36.73
15267;BME280;7735;49.144;8.668;2023-04-15T13:08:39;99474.13;;;14.38;37.82
15267;BME280;7735;49.144;8.668;2023-04-15T13:11:05;99474.94;;;14.40;38.00
15267;BME280;7735;49.144;8.668;2023-04-15T13:13:33;99473.19;;;14.40;37.64
15267;BME280;7735;49.144;8.668;2023-04-15T13:16:00;99472.31;;;14.40;37.52
15267;BME280;7735;49.144;8.668;2023-04-15T13:18:27;99472.31;;;14.40;37.82
15267;BME280;7735;49.144;8.668;2023-04-15T13:20:55;99488.00;;;14.41;38.15
15267;BME280;7735;49.144;8.668;2023-04-15T13:23:22;99488.13;;;14.37;38.09
15267;BME280;7735;49.144;8.668;2023-04-15T13:25:48;99490.00;;;14.33;38.52
15267;BME280;7735;49.144;8.668;2023-04-15T13:28:15;99500.78;;;14.24;40.16